Archival Weather

Václav Havel Intl Apt

Prague, Czechia (LKPR)

Report from: Monday, May 29, 2023 8:30 PM CEST
Current time: Saturday, February 24, 2024 4:14 PM CET

Current weather – Weather history – Daily summaries
Weather forecast

Temperature18.0°C (64.4°F)
Dew point7.0°C (44.6°F)
Winds 6 kts (3.1 m/s, 6.9 mph) North (350°)
Clouds Sky clear
Altimeter30.09 in.Hg (1019 mB)
Relative humidity49 %
Density altitude305 ft. (93 m)
Remarks Ceiling and visibility OK
No significant changes expected in the next two hours
Flight conditions Visual Meteorological Conditions
Raw dataLKPR 291830Z 35006KT CAVOK 18/07 Q1019 NOSIG
An error has occurred. This application may no longer respond until reloaded. Reload 🗙